sensor_id;sensor_type;location;lat;lon;timestamp;temperature;humidity
18541;DHT22;9400;50.924;5.328;2022-10-16T00:01:38;14.40;99.90
18541;DHT22;9400;50.924;5.328;2022-10-16T00:04:09;14.40;99.90
18541;DHT22;9400;50.924;5.328;2022-10-16T00:06:37;14.30;99.90
18541;DHT22;9400;50.924;5.328;2022-10-16T00:09:05;14.30;99.90
18541;DHT22;9400;50.924;5.328;2022-10-16T00:11:37;14.30;99.90
18541;DHT22;9400;50.924;5.328;2022-10-16T00:14:08;14.30;99.90
18541;DHT22;9400;50.924;5.328;2022-10-16T00:16:36;14.30;99.90
18541;DHT22;9400;50.924;5.328;2022-10-16T00:19:04;14.30;99.90
18541;DHT22;9400;50.924;5.328;2022-10-16T00:21:35;14.20;99.90
18541;DHT22;9400;50.924;5.328;2022-10-16T00:24:06;14.20;99.90
18541;DHT22;9400;50.924;5.328;2022-10-16T00:26:36;14.20;99.90
18541;DHT22;9400;50.924;5.328;2022-10-16T00:29:07;14.20;99.90
18541;DHT22;9400;50.924;5.328;2022-10-16T00:31:34;14.10;99.90
18541;DHT22;9400;50.924;5.328;2022-10-16T00:34:02;14.10;99.90
18541;DHT22;9400;50.924;5.328;2022-10-16T00:36:30;14.10;99.90
18541;DHT22;9400;50.924;5.328;2022-10-16T00:38:58;14.10;99.90
18541;DHT22;9400;50.924;5.328;2022-10-16T00:41:27;14.00;99.90
18541;DHT22;9400;50.924;5.328;2022-10-16T00:43:57;14.10;99.90
18541;DHT22;9400;50.924;5.328;2022-10-16T00:46:27;14.00;99.90
18541;DHT22;9400;50.924;5.328;2022-10-16T00:49:00;14.00;99.90
18541;DHT22;9400;50.924;5.328;2022-10-16T00:51:32;14.00;99.90
18541;DHT22;9400;50.924;5.328;2022-10-16T00:54:02;14.00;99.90
18541;DHT22;9400;50.924;5.328;2022-10-16T00:56:32;14.00;99.90
18541;DHT22;9400;50.924;5.328;2022-10-16T00:59:04;14.10;99.90
18541;DHT22;9400;50.924;5.328;2022-10-16T01:01:34;14.00;99.90
18541;DHT22;9400;50.924;5.328;2022-10-16T01:04:01;14.00;99.90
18541;DHT22;9400;50.924;5.328;2022-10-16T01:06:36;14.00;99.90
18541;DHT22;9400;50.924;5.328;2022-10-16T01:09:14;13.90;99.90
18541;DHT22;9400;50.924;5.328;2022-10-16T01:11:52;13.90;99.90
18541;DHT22;9400;50.924;5.328;2022-10-16T01:14:29;13.90;99.90
18541;DHT22;9400;50.924;5.328;2022-10-16T01:17:06;13.90;99.90
18541;DHT22;9400;50.924;5.328;2022-10-16T01:20:08;13.90;99.90
18541;DHT22;9400;50.924;5.328;2022-10-16T01:22:48;13.90;99.90
18541;DHT22;9400;50.924;5.328;2022-10-16T01:25:25;13.80;99.90
18541;DHT22;9400;50.924;5.328;2022-10-16T01:27:57;13.80;99.90
18541;DHT22;9400;50.924;5.328;2022-10-16T01:30:28;13.80;99.90
18541;DHT22;9400;50.924;5.328;2022-10-16T01:33:00;13.80;99.90
18541;DHT22;9400;50.924;5.328;2022-10-16T01:35:32;13.80;99.90
18541;DHT22;9400;50.924;5.328;2022-10-16T01:38:04;13.80;99.90
18541;DHT22;9400;50.924;5.328;2022-10-16T01:40:38;13.80;99.90
18541;DHT22;9400;50.924;5.328;2022-10-16T01:43:11;13.80;99.90
18541;DHT22;9400;50.924;5.328;2022-10-16T01:45:44;13.80;99.90
18541;DHT22;9400;50.924;5.328;2022-10-16T01:48:13;13.80;99.90
18541;DHT22;9400;50.924;5.328;2022-10-16T01:50:44;13.80;99.90
18541;DHT22;9400;50.924;5.328;2022-10-16T01:53:16;13.80;99.90
18541;DHT22;9400;50.924;5.328;2022-10-16T01:55:47;13.80;99.90
18541;DHT22;9400;50.924;5.328;2022-10-16T01:58:16;13.80;99.90
18541;DHT22;9400;50.924;5.328;2022-10-16T02:00:45;13.80;99.90
18541;DHT22;9400;50.924;5.328;2022-10-16T02:03:17;13.80;99.90
18541;DHT22;9400;50.924;5.328;2022-10-16T02:05:47;13.70;99.90
18541;DHT22;9400;50.924;5.328;2022-10-16T02:08:16;13.70;99.90
18541;DHT22;9400;50.924;5.328;2022-10-16T02:10:44;13.80;99.90
18541;DHT22;9400;50.924;5.328;2022-10-16T02:13:15;13.70;99.90
18541;DHT22;9400;50.924;5.328;2022-10-16T02:15:45;13.70;99.90
18541;DHT22;9400;50.924;5.328;2022-10-16T02:18:14;13.70;99.90
18541;DHT22;9400;50.924;5.328;2022-10-16T02:20:46;13.70;99.90
18541;DHT22;9400;50.924;5.328;2022-10-16T02:23:19;13.70;99.90
18541;DHT22;9400;50.924;5.328;2022-10-16T02:25:54;13.70;99.90
18541;DHT22;9400;50.924;5.328;2022-10-16T02:28:26;13.70;99.90
18541;DHT22;9400;50.924;5.328;2022-10-16T02:30:58;13.70;99.90
18541;DHT22;9400;50.924;5.328;2022-10-16T02:33:27;13.70;99.90
18541;DHT22;9400;50.924;5.328;2022-10-16T02:35:57;13.70;99.90
18541;DHT22;9400;50.924;5.328;2022-10-16T02:38:26;13.80;99.90
18541;DHT22;9400;50.924;5.328;2022-10-16T02:40:56;13.70;99.90
18541;DHT22;9400;50.924;5.328;2022-10-16T02:43:25;13.80;99.90
18541;DHT22;9400;50.924;5.328;2022-10-16T02:45:53;13.80;99.90
18541;DHT22;9400;50.924;5.328;2022-10-16T02:48:21;13.80;99.90
18541;DHT22;9400;50.924;5.328;2022-10-16T02:50:49;13.70;99.90
18541;DHT22;9400;50.924;5.328;2022-10-16T02:53:16;13.80;99.90
18541;DHT22;9400;50.924;5.328;2022-10-16T02:55:44;13.80;99.90
18541;DHT22;9400;50.924;5.328;2022-10-16T02:58:12;13.80;99.90
18541;DHT22;9400;50.924;5.328;2022-10-16T03:00:39;13.70;99.90
18541;DHT22;9400;50.924;5.328;2022-10-16T03:03:08;13.70;99.90
18541;DHT22;9400;50.924;5.328;2022-10-16T03:05:37;13.70;99.90
18541;DHT22;9400;50.924;5.328;2022-10-16T03:08:05;13.70;99.90
18541;DHT22;9400;50.924;5.328;2022-10-16T03:10:33;13.70;99.90
18541;DHT22;9400;50.924;5.328;2022-10-16T03:13:01;13.70;99.90
18541;DHT22;9400;50.924;5.328;2022-10-16T03:15:29;13.70;99.90
18541;DHT22;9400;50.924;5.328;2022-10-16T03:17:58;13.60;99.90
18541;DHT22;9400;50.924;5.328;2022-10-16T03:20:26;13.60;99.90
18541;DHT22;9400;50.924;5.328;2022-10-16T03:22:55;13.60;99.90
18541;DHT22;9400;50.924;5.328;2022-10-16T03:25:24;13.60;99.90
18541;DHT22;9400;50.924;5.328;2022-10-16T03:27:51;13.60;99.90
18541;DHT22;9400;50.924;5.328;2022-10-16T03:30:20;13.60;99.90
18541;DHT22;9400;50.924;5.328;2022-10-16T03:32:47;13.60;99.90
18541;DHT22;9400;50.924;5.328;2022-10-16T03:35:19;13.60;99.90
18541;DHT22;9400;50.924;5.328;2022-10-16T03:37:47;13.60;99.90
18541;DHT22;9400;50.924;5.328;2022-10-16T03:40:17;13.60;99.90
18541;DHT22;9400;50.924;5.328;2022-10-16T03:42:45;13.60;99.90
18541;DHT22;9400;50.924;5.328;2022-10-16T03:45:12;13.60;99.90
18541;DHT22;9400;50.924;5.328;2022-10-16T03:47:40;13.60;99.90
18541;DHT22;9400;50.924;5.328;2022-10-16T03:50:08;13.60;99.90
18541;DHT22;9400;50.924;5.328;2022-10-16T03:52:36;13.50;99.90
18541;DHT22;9400;50.924;5.328;2022-10-16T03:55:04;13.50;99.90
18541;DHT22;9400;50.924;5.328;2022-10-16T03:57:33;13.50;99.90
18541;DHT22;9400;50.924;5.328;2022-10-16T04:00:02;13.50;99.90
18541;DHT22;9400;50.924;5.328;2022-10-16T04:02:29;13.50;99.90
18541;DHT22;9400;50.924;5.328;2022-10-16T04:04:57;13.50;99.90
18541;DHT22;9400;50.924;5.328;2022-10-16T04:07:24;13.50;99.90
18541;DHT22;9400;50.924;5.328;2022-10-16T04:09:52;13.50;99.90
18541;DHT22;9400;50.924;5.328;2022-10-16T04:12:20;13.40;99.90
18541;DHT22;9400;50.924;5.328;2022-10-16T04:14:49;13.40;99.90
18541;DHT22;9400;50.924;5.328;2022-10-16T04:17:17;13.40;99.90
18541;DHT22;9400;50.924;5.328;2022-10-16T04:19:44;13.40;99.90
18541;DHT22;9400;50.924;5.328;2022-10-16T04:22:13;13.40;99.90
18541;DHT22;9400;50.924;5.328;2022-10-16T04:24:40;13.40;99.90
18541;DHT22;9400;50.924;5.328;2022-10-16T04:27:11;13.40;99.90
18541;DHT22;9400;50.924;5.328;2022-10-16T04:29:38;13.40;99.90
18541;DHT22;9400;50.924;5.328;2022-10-16T04:32:10;13.40;99.90
18541;DHT22;9400;50.924;5.328;2022-10-16T04:34:40;13.40;99.90
18541;DHT22;9400;50.924;5.328;2022-10-16T04:37:08;13.50;99.90
18541;DHT22;9400;50.924;5.328;2022-10-16T04:39:36;13.50;99.90
18541;DHT22;9400;50.924;5.328;2022-10-16T04:42:04;13.40;99.90
18541;DHT22;9400;50.924;5.328;2022-10-16T04:44:31;13.50;99.90
18541;DHT22;9400;50.924;5.328;2022-10-16T04:47:00;13.50;99.90
18541;DHT22;9400;50.924;5.328;2022-10-16T04:49:29;13.50;99.90
18541;DHT22;9400;50.924;5.328;2022-10-16T04:51:57;13.50;99.90
18541;DHT22;9400;50.924;5.328;2022-10-16T04:54:24;13.50;99.90
18541;DHT22;9400;50.924;5.328;2022-10-16T04:56:52;13.50;99.90
18541;DHT22;9400;50.924;5.328;2022-10-16T04:59:20;13.50;99.90
18541;DHT22;9400;50.924;5.328;2022-10-16T05:01:48;13.50;99.90
18541;DHT22;9400;50.924;5.328;2022-10-16T05:04:16;13.50;99.90
18541;DHT22;9400;50.924;5.328;2022-10-16T05:06:45;13.40;99.90
18541;DHT22;9400;50.924;5.328;2022-10-16T05:09:13;13.40;99.90
18541;DHT22;9400;50.924;5.328;2022-10-16T05:11:41;13.40;99.90
18541;DHT22;9400;50.924;5.328;2022-10-16T05:14:08;13.40;99.90
18541;DHT22;9400;50.924;5.328;2022-10-16T05:16:36;13.40;99.90
18541;DHT22;9400;50.924;5.328;2022-10-16T05:19:04;13.40;99.90
18541;DHT22;9400;50.924;5.328;2022-10-16T05:21:31;13.40;99.90
18541;DHT22;9400;50.924;5.328;2022-10-16T05:24:00;13.40;99.90
18541;DHT22;9400;50.924;5.328;2022-10-16T05:26:28;13.40;99.90
18541;DHT22;9400;50.924;5.328;2022-10-16T05:28:56;13.30;99.90
18541;DHT22;9400;50.924;5.328;2022-10-16T05:31:23;13.30;99.90
18541;DHT22;9400;50.924;5.328;2022-10-16T05:33:51;13.30;99.90
18541;DHT22;9400;50.924;5.328;2022-10-16T05:36:18;13.30;99.90
18541;DHT22;9400;50.924;5.328;2022-10-16T05:38:50;13.40;99.90
18541;DHT22;9400;50.924;5.328;2022-10-16T05:41:19;13.40;99.90
18541;DHT22;9400;50.924;5.328;2022-10-16T05:43:47;13.40;99.90
18541;DHT22;9400;50.924;5.328;2022-10-16T05:46:15;13.30;99.90
18541;DHT22;9400;50.924;5.328;2022-10-16T05:48:42;13.30;99.90
18541;DHT22;9400;50.924;5.328;2022-10-16T05:51:12;13.30;99.90
18541;DHT22;9400;50.924;5.328;2022-10-16T05:53:40;13.30;99.90
18541;DHT22;9400;50.924;5.328;2022-10-16T05:56:10;13.30;99.90
18541;DHT22;9400;50.924;5.328;2022-10-16T05:58:40;13.30;99.90
18541;DHT22;9400;50.924;5.328;2022-10-16T06:01:10;13.30;99.90
18541;DHT22;9400;50.924;5.328;2022-10-16T06:03:39;13.30;99.90
18541;DHT22;9400;50.924;5.328;2022-10-16T06:06:10;13.30;99.90
18541;DHT22;9400;50.924;5.328;2022-10-16T06:08:39;13.30;99.90
18541;DHT22;9400;50.924;5.328;2022-10-16T06:11:09;13.20;99.90
18541;DHT22;9400;50.924;5.328;2022-10-16T06:13:38;13.20;99.90
18541;DHT22;9400;50.924;5.328;2022-10-16T06:16:08;13.20;99.90
18541;DHT22;9400;50.924;5.328;2022-10-16T06:18:36;13.20;99.90
18541;DHT22;9400;50.924;5.328;2022-10-16T06:21:09;13.20;99.90
18541;DHT22;9400;50.924;5.328;2022-10-16T06:23:36;13.20;99.90
18541;DHT22;9400;50.924;5.328;2022-10-16T06:26:06;13.20;99.90
18541;DHT22;9400;50.924;5.328;2022-10-16T06:28:34;13.20;99.90
18541;DHT22;9400;50.924;5.328;2022-10-16T06:31:04;13.20;99.90
18541;DHT22;9400;50.924;5.328;2022-10-16T06:33:32;13.20;99.90
18541;DHT22;9400;50.924;5.328;2022-10-16T06:36:04;13.30;99.90
18541;DHT22;9400;50.924;5.328;2022-10-16T06:38:34;13.20;99.90
18541;DHT22;9400;50.924;5.328;2022-10-16T06:41:02;13.20;99.90
18541;DHT22;9400;50.924;5.328;2022-10-16T06:43:31;13.30;99.90
18541;DHT22;9400;50.924;5.328;2022-10-16T06:46:03;13.30;99.90
18541;DHT22;9400;50.924;5.328;2022-10-16T06:48:32;13.30;99.90
18541;DHT22;9400;50.924;5.328;2022-10-16T06:51:00;13.30;99.90
18541;DHT22;9400;50.924;5.328;2022-10-16T06:53:31;13.30;99.90
18541;DHT22;9400;50.924;5.328;2022-10-16T06:56:07;13.30;99.90
18541;DHT22;9400;50.924;5.328;2022-10-16T06:58:36;13.30;99.90
18541;DHT22;9400;50.924;5.328;2022-10-16T07:01:06;13.30;99.90
18541;DHT22;9400;50.924;5.328;2022-10-16T07:03:36;13.40;99.90
18541;DHT22;9400;50.924;5.328;2022-10-16T07:06:05;13.40;99.90
18541;DHT22;9400;50.924;5.328;2022-10-16T07:08:32;13.50;99.90
18541;DHT22;9400;50.924;5.328;2022-10-16T07:11:01;13.50;99.90
18541;DHT22;9400;50.924;5.328;2022-10-16T07:13:29;13.60;99.90
18541;DHT22;9400;50.924;5.328;2022-10-16T07:15:56;13.60;99.90
18541;DHT22;9400;50.924;5.328;2022-10-16T07:18:26;13.70;99.90
18541;DHT22;9400;50.924;5.328;2022-10-16T07:21:03;13.70;99.90
18541;DHT22;9400;50.924;5.328;2022-10-16T07:23:31;13.70;99.90
18541;DHT22;9400;50.924;5.328;2022-10-16T07:25:59;13.80;99.90
18541;DHT22;9400;50.924;5.328;2022-10-16T07:28:27;13.80;99.90
18541;DHT22;9400;50.924;5.328;2022-10-16T07:30:55;13.90;99.90
18541;DHT22;9400;50.924;5.328;2022-10-16T07:33:22;14.00;99.90
18541;DHT22;9400;50.924;5.328;2022-10-16T07:35:53;14.10;99.90
18541;DHT22;9400;50.924;5.328;2022-10-16T07:38:21;14.10;99.90
18541;DHT22;9400;50.924;5.328;2022-10-16T07:40:56;14.20;99.90
18541;DHT22;9400;50.924;5.328;2022-10-16T07:43:25;14.20;99.90
18541;DHT22;9400;50.924;5.328;2022-10-16T07:45:52;14.30;99.90
18541;DHT22;9400;50.924;5.328;2022-10-16T07:48:26;14.40;99.90
18541;DHT22;9400;50.924;5.328;2022-10-16T07:50:58;14.50;99.90
18541;DHT22;9400;50.924;5.328;2022-10-16T07:53:26;14.60;99.90
18541;DHT22;9400;50.924;5.328;2022-10-16T07:55:58;14.70;99.90
18541;DHT22;9400;50.924;5.328;2022-10-16T07:58:26;14.70;99.90
18541;DHT22;9400;50.924;5.328;2022-10-16T08:00:54;14.80;99.90
18541;DHT22;9400;50.924;5.328;2022-10-16T08:03:22;14.90;99.90
18541;DHT22;9400;50.924;5.328;2022-10-16T08:05:50;15.10;99.90
18541;DHT22;9400;50.924;5.328;2022-10-16T08:08:19;15.20;99.90
18541;DHT22;9400;50.924;5.328;2022-10-16T08:10:50;15.30;99.90
18541;DHT22;9400;50.924;5.328;2022-10-16T08:13:18;15.30;99.90
18541;DHT22;9400;50.924;5.328;2022-10-16T08:15:46;15.40;99.90
18541;DHT22;9400;50.924;5.328;2022-10-16T08:18:14;15.40;99.90
18541;DHT22;9400;50.924;5.328;2022-10-16T08:20:43;15.40;99.90
18541;DHT22;9400;50.924;5.328;2022-10-16T08:23:12;15.40;99.90
18541;DHT22;9400;50.924;5.328;2022-10-16T08:25:41;15.50;99.90
18541;DHT22;9400;50.924;5.328;2022-10-16T08:28:11;15.60;99.90
18541;DHT22;9400;50.924;5.328;2022-10-16T08:30:38;15.60;99.90
18541;DHT22;9400;50.924;5.328;2022-10-16T08:33:06;15.60;99.90
18541;DHT22;9400;50.924;5.328;2022-10-16T08:35:33;15.70;99.90
18541;DHT22;9400;50.924;5.328;2022-10-16T08:38:03;15.70;99.90
18541;DHT22;9400;50.924;5.328;2022-10-16T08:40:32;15.60;99.90
18541;DHT22;9400;50.924;5.328;2022-10-16T08:43:26;15.70;99.90
18541;DHT22;9400;50.924;5.328;2022-10-16T08:46:08;15.80;99.90
18541;DHT22;9400;50.924;5.328;2022-10-16T08:48:46;15.90;99.90
18541;DHT22;9400;50.924;5.328;2022-10-16T08:51:19;15.90;99.90
18541;DHT22;9400;50.924;5.328;2022-10-16T08:53:52;16.00;99.90
18541;DHT22;9400;50.924;5.328;2022-10-16T08:56:20;16.00;99.90
18541;DHT22;9400;50.924;5.328;2022-10-16T08:58:50;16.00;99.90
18541;DHT22;9400;50.924;5.328;2022-10-16T09:01:20;16.10;99.90
18541;DHT22;9400;50.924;5.328;2022-10-16T09:04:02;16.20;99.90
18541;DHT22;9400;50.924;5.328;2022-10-16T09:06:44;16.30;99.90
18541;DHT22;9400;50.924;5.328;2022-10-16T09:12:19;16.30;99.90
18541;DHT22;9400;50.924;5.328;2022-10-16T09:14:59;16.30;99.90
18541;DHT22;9400;50.924;5.328;2022-10-16T09:17:40;16.40;99.90
18541;DHT22;9400;50.924;5.328;2022-10-16T09:20:23;16.40;99.90
18541;DHT22;9400;50.924;5.328;2022-10-16T09:23:00;16.50;99.90
18541;DHT22;9400;50.924;5.328;2022-10-16T09:25:36;16.50;99.90
18541;DHT22;9400;50.924;5.328;2022-10-16T09:28:05;16.60;99.90
18541;DHT22;9400;50.924;5.328;2022-10-16T09:30:34;16.70;99.90
18541;DHT22;9400;50.924;5.328;2022-10-16T09:33:24;16.70;99.90
18541;DHT22;9400;50.924;5.328;2022-10-16T09:35:54;16.80;99.90
18541;DHT22;9400;50.924;5.328;2022-10-16T09:38:26;16.80;99.90
18541;DHT22;9400;50.924;5.328;2022-10-16T09:40:57;16.80;99.90
18541;DHT22;9400;50.924;5.328;2022-10-16T09:43:27;16.80;99.90
18541;DHT22;9400;50.924;5.328;2022-10-16T09:46:00;16.90;99.90
18541;DHT22;9400;50.924;5.328;2022-10-16T09:48:35;17.00;99.90
18541;DHT22;9400;50.924;5.328;2022-10-16T09:51:06;17.10;99.90
18541;DHT22;9400;50.924;5.328;2022-10-16T09:53:42;17.20;99.90
18541;DHT22;9400;50.924;5.328;2022-10-16T09:56:11;17.30;99.90
18541;DHT22;9400;50.924;5.328;2022-10-16T09:58:49;17.50;99.90
18541;DHT22;9400;50.924;5.328;2022-10-16T10:01:19;17.50;99.90
18541;DHT22;9400;50.924;5.328;2022-10-16T10:03:48;17.60;99.90
18541;DHT22;9400;50.924;5.328;2022-10-16T10:06:25;17.50;99.90
18541;DHT22;9400;50.924;5.328;2022-10-16T10:09:02;17.50;99.90
18541;DHT22;9400;50.924;5.328;2022-10-16T10:11:41;17.50;99.90
18541;DHT22;9400;50.924;5.328;2022-10-16T10:14:23;17.70;99.90
18541;DHT22;9400;50.924;5.328;2022-10-16T10:17:01;17.90;99.90
18541;DHT22;9400;50.924;5.328;2022-10-16T10:19:29;18.10;99.90
18541;DHT22;9400;50.924;5.328;2022-10-16T10:21:58;18.20;99.90
18541;DHT22;9400;50.924;5.328;2022-10-16T10:24:26;18.40;99.90
18541;DHT22;9400;50.924;5.328;2022-10-16T10:27:00;18.40;99.90
18541;DHT22;9400;50.924;5.328;2022-10-16T10:29:42;18.20;99.90
18541;DHT22;9400;50.924;5.328;2022-10-16T10:32:21;18.40;99.90
18541;DHT22;9400;50.924;5.328;2022-10-16T10:35:11;18.40;1.00
18541;DHT22;9400;50.924;5.328;2022-10-16T10:37:54;18.30;1.00
18541;DHT22;9400;50.924;5.328;2022-10-16T10:40:34;18.40;1.00
18541;DHT22;9400;50.924;5.328;2022-10-16T10:43:16;18.20;99.90
18541;DHT22;9400;50.924;5.328;2022-10-16T10:45:48;18.10;99.90
18541;DHT22;9400;50.924;5.328;2022-10-16T10:48:27;18.00;1.00
18541;DHT22;9400;50.924;5.328;2022-10-16T10:51:04;18.00;99.90
18541;DHT22;9400;50.924;5.328;2022-10-16T10:53:42;18.10;99.90
18541;DHT22;9400;50.924;5.328;2022-10-16T10:56:26;18.20;99.90
18541;DHT22;9400;50.924;5.328;2022-10-16T10:59:07;18.20;99.90
18541;DHT22;9400;50.924;5.328;2022-10-16T11:01:47;18.40;99.90
18541;DHT22;9400;50.924;5.328;2022-10-16T11:04:35;18.80;99.90
18541;DHT22;9400;50.924;5.328;2022-10-16T11:07:10;19.00;99.90
18541;DHT22;9400;50.924;5.328;2022-10-16T11:09:42;19.00;99.90
18541;DHT22;9400;50.924;5.328;2022-10-16T11:12:17;18.90;99.90
18541;DHT22;9400;50.924;5.328;2022-10-16T11:14:50;19.00;99.90
18541;DHT22;9400;50.924;5.328;2022-10-16T11:17:27;19.50;99.90
18541;DHT22;9400;50.924;5.328;2022-10-16T11:20:03;19.50;93.60
18541;DHT22;9400;50.924;5.328;2022-10-16T11:22:36;19.40;99.90
18541;DHT22;9400;50.924;5.328;2022-10-16T11:25:13;19.30;71.40
18541;DHT22;9400;50.924;5.328;2022-10-16T11:27:47;19.20;48.50
18541;DHT22;9400;50.924;5.328;2022-10-16T11:30:19;19.20;9.50
18541;DHT22;9400;50.924;5.328;2022-10-16T11:33:00;19.30;24.80
18541;DHT22;9400;50.924;5.328;2022-10-16T11:35:40;19.40;99.90
18541;DHT22;9400;50.924;5.328;2022-10-16T11:38:15;20.10;14.50
18541;DHT22;9400;50.924;5.328;2022-10-16T11:40:48;20.70;1.00
18541;DHT22;9400;50.924;5.328;2022-10-16T11:43:24;20.60;1.00
18541;DHT22;9400;50.924;5.328;2022-10-16T11:45:55;20.40;71.10
18541;DHT22;9400;50.924;5.328;2022-10-16T11:48:30;20.40;1.00
18541;DHT22;9400;50.924;5.328;2022-10-16T11:51:06;20.20;1.90
18541;DHT22;9400;50.924;5.328;2022-10-16T11:53:45;20.20;76.20
18541;DHT22;9400;50.924;5.328;2022-10-16T11:56:16;21.00;8.20
18541;DHT22;9400;50.924;5.328;2022-10-16T11:58:54;21.70;1.00
18541;DHT22;9400;50.924;5.328;2022-10-16T12:01:28;21.40;1.00
18541;DHT22;9400;50.924;5.328;2022-10-16T12:04:14;21.10;1.00
18541;DHT22;9400;50.924;5.328;2022-10-16T12:06:47;21.00;96.60
18541;DHT22;9400;50.924;5.328;2022-10-16T12:09:21;20.90;82.50
18541;DHT22;9400;50.924;5.328;2022-10-16T12:11:50;21.00;1.00
18541;DHT22;9400;50.924;5.328;2022-10-16T12:14:39;21.00;1.00
18541;DHT22;9400;50.924;5.328;2022-10-16T12:17:26;21.10;1.00
18541;DHT22;9400;50.924;5.328;2022-10-16T12:19:59;21.40;1.00
18541;DHT22;9400;50.924;5.328;2022-10-16T12:22:30;21.10;1.00
18541;DHT22;9400;50.924;5.328;2022-10-16T12:24:58;20.90;99.90
18541;DHT22;9400;50.924;5.328;2022-10-16T12:27:29;20.70;1.00
18541;DHT22;9400;50.924;5.328;2022-10-16T12:29:59;20.80;1.00
18541;DHT22;9400;50.924;5.328;2022-10-16T12:32:31;21.10;1.00
18541;DHT22;9400;50.924;5.328;2022-10-16T12:35:00;22.00;1.00
18541;DHT22;9400;50.924;5.328;2022-10-16T12:37:32;22.90;99.90
18541;DHT22;9400;50.924;5.328;2022-10-16T12:40:12;23.10;7.20
18541;DHT22;9400;50.924;5.328;2022-10-16T12:42:41;22.70;1.00
18541;DHT22;9400;50.924;5.328;2022-10-16T12:45:26;22.40;1.00
18541;DHT22;9400;50.924;5.328;2022-10-16T12:47:54;22.30;1.00
18541;DHT22;9400;50.924;5.328;2022-10-16T12:50:32;21.90;1.00
18541;DHT22;9400;50.924;5.328;2022-10-16T12:53:03;21.60;1.00
18541;DHT22;9400;50.924;5.328;2022-10-16T12:55:42;21.70;1.00
18541;DHT22;9400;50.924;5.328;2022-10-16T12:58:20;21.50;1.00
18541;DHT22;9400;50.924;5.328;2022-10-16T13:00:55;21.10;99.90
18541;DHT22;9400;50.924;5.328;2022-10-16T13:03:38;20.90;1.00
18541;DHT22;9400;50.924;5.328;2022-10-16T13:06:18;20.60;6.30
18541;DHT22;9400;50.924;5.328;2022-10-16T13:09:10;20.60;1.00
18541;DHT22;9400;50.924;5.328;2022-10-16T13:11:50;20.50;64.70
18541;DHT22;9400;50.924;5.328;2022-10-16T13:14:41;20.80;20.60
18541;DHT22;9400;50.924;5.328;2022-10-16T13:17:18;20.90;1.00
18541;DHT22;9400;50.924;5.328;2022-10-16T13:19:55;20.90;1.00
18541;DHT22;9400;50.924;5.328;2022-10-16T13:22:30;20.70;34.40
18541;DHT22;9400;50.924;5.328;2022-10-16T13:25:15;20.40;99.90
18541;DHT22;9400;50.924;5.328;2022-10-16T13:27:52;20.40;1.00
18541;DHT22;9400;50.924;5.328;2022-10-16T13:30:24;20.20;1.00
18541;DHT22;9400;50.924;5.328;2022-10-16T13:32:58;20.10;7.00
18541;DHT22;9400;50.924;5.328;2022-10-16T13:35:27;20.10;95.80
18541;DHT22;9400;50.924;5.328;2022-10-16T13:38:05;20.10;1.00
18541;DHT22;9400;50.924;5.328;2022-10-16T13:40:35;20.30;1.00
18541;DHT22;9400;50.924;5.328;2022-10-16T13:43:03;20.30;99.90
18541;DHT22;9400;50.924;5.328;2022-10-16T13:45:30;20.40;99.90
18541;DHT22;9400;50.924;5.328;2022-10-16T13:48:10;20.50;1.00
18541;DHT22;9400;50.924;5.328;2022-10-16T13:50:39;20.40;1.00
18541;DHT22;9400;50.924;5.328;2022-10-16T13:53:09;20.40;1.00
18541;DHT22;9400;50.924;5.328;2022-10-16T13:55:42;20.40;17.70
18541;DHT22;9400;50.924;5.328;2022-10-16T13:58:13;20.30;40.80
18541;DHT22;9400;50.924;5.328;2022-10-16T14:00:52;20.40;39.60
18541;DHT22;9400;50.924;5.328;2022-10-16T14:03:20;20.10;1.00
18541;DHT22;9400;50.924;5.328;2022-10-16T14:05:50;20.20;1.00
18541;DHT22;9400;50.924;5.328;2022-10-16T14:08:19;20.20;1.00
18541;DHT22;9400;50.924;5.328;2022-10-16T14:10:51;20.50;1.00
18541;DHT22;9400;50.924;5.328;2022-10-16T14:13:23;20.70;1.00
18541;DHT22;9400;50.924;5.328;2022-10-16T14:15:52;20.90;1.00
18541;DHT22;9400;50.924;5.328;2022-10-16T14:18:22;20.70;1.00
18541;DHT22;9400;50.924;5.328;2022-10-16T14:20:53;20.70;1.00
18541;DHT22;9400;50.924;5.328;2022-10-16T14:23:23;20.40;47.90
18541;DHT22;9400;50.924;5.328;2022-10-16T14:25:53;20.60;1.00
18541;DHT22;9400;50.924;5.328;2022-10-16T14:28:22;20.50;1.00
18541;DHT22;9400;50.924;5.328;2022-10-16T14:30:52;20.40;1.00
18541;DHT22;9400;50.924;5.328;2022-10-16T14:33:23;20.30;1.00
18541;DHT22;9400;50.924;5.328;2022-10-16T14:36:11;20.20;99.90
18541;DHT22;9400;50.924;5.328;2022-10-16T14:38:40;20.20;96.00
18541;DHT22;9400;50.924;5.328;2022-10-16T14:41:10;20.10;99.90
18541;DHT22;9400;50.924;5.328;2022-10-16T14:43:40;20.00;18.30
18541;DHT22;9400;50.924;5.328;2022-10-16T14:46:13;20.00;1.00
18541;DHT22;9400;50.924;5.328;2022-10-16T14:48:41;20.00;1.00
18541;DHT22;9400;50.924;5.328;2022-10-16T14:51:13;19.90;1.00
18541;DHT22;9400;50.924;5.328;2022-10-16T14:53:41;19.90;1.00
18541;DHT22;9400;50.924;5.328;2022-10-16T14:56:16;20.00;1.00
18541;DHT22;9400;50.924;5.328;2022-10-16T14:58:44;20.10;1.00
18541;DHT22;9400;50.924;5.328;2022-10-16T15:01:12;20.00;1.00
18541;DHT22;9400;50.924;5.328;2022-10-16T15:03:40;20.00;1.00
18541;DHT22;9400;50.924;5.328;2022-10-16T15:06:10;20.10;1.00
18541;DHT22;9400;50.924;5.328;2022-10-16T15:08:38;20.10;1.00
18541;DHT22;9400;50.924;5.328;2022-10-16T15:11:12;20.20;99.90
18541;DHT22;9400;50.924;5.328;2022-10-16T15:13:41;20.30;99.90
18541;DHT22;9400;50.924;5.328;2022-10-16T15:16:12;20.40;99.90
18541;DHT22;9400;50.924;5.328;2022-10-16T15:18:39;20.30;99.90
18541;DHT22;9400;50.924;5.328;2022-10-16T15:21:07;20.30;99.90
18541;DHT22;9400;50.924;5.328;2022-10-16T15:23:35;20.30;99.90
18541;DHT22;9400;50.924;5.328;2022-10-16T15:26:04;20.20;1.00
18541;DHT22;9400;50.924;5.328;2022-10-16T15:28:33;20.10;1.00
18541;DHT22;9400;50.924;5.328;2022-10-16T15:31:04;19.80;9.70
18541;DHT22;9400;50.924;5.328;2022-10-16T15:33:33;19.70;1.00
18541;DHT22;9400;50.924;5.328;2022-10-16T15:36:01;19.60;1.00
18541;DHT22;9400;50.924;5.328;2022-10-16T15:38:30;19.60;1.00
18541;DHT22;9400;50.924;5.328;2022-10-16T15:40:59;19.40;1.00
18541;DHT22;9400;50.924;5.328;2022-10-16T15:43:26;19.40;1.00
18541;DHT22;9400;50.924;5.328;2022-10-16T15:46:01;19.50;99.90
18541;DHT22;9400;50.924;5.328;2022-10-16T15:48:30;19.40;29.70
18541;DHT22;9400;50.924;5.328;2022-10-16T15:50:58;19.40;21.70
18541;DHT22;9400;50.924;5.328;2022-10-16T15:53:26;19.30;46.40
18541;DHT22;9400;50.924;5.328;2022-10-16T15:55:54;19.20;1.00
18541;DHT22;9400;50.924;5.328;2022-10-16T15:58:21;19.10;84.80
18541;DHT22;9400;50.924;5.328;2022-10-16T16:00:55;19.10;99.90
18541;DHT22;9400;50.924;5.328;2022-10-16T16:03:27;19.00;60.70
18541;DHT22;9400;50.924;5.328;2022-10-16T16:05:55;19.00;99.90
18541;DHT22;9400;50.924;5.328;2022-10-16T16:08:22;19.00;49.70
18541;DHT22;9400;50.924;5.328;2022-10-16T16:10:58;19.00;73.50
18541;DHT22;9400;50.924;5.328;2022-10-16T16:13:26;19.00;99.90
18541;DHT22;9400;50.924;5.328;2022-10-16T16:15:54;18.90;99.90
18541;DHT22;9400;50.924;5.328;2022-10-16T16:18:22;18.90;99.90
18541;DHT22;9400;50.924;5.328;2022-10-16T16:20:51;18.80;99.90